Latest Weather Observations for Cape Sorell

IDT60801

Issued at 11:31 am EDT Sunday 1 March 2015 (issued every 30 minutes, with the page automatically refreshed every 10 minutes)

About weather observations | Map of weather stations | Latest weather observations for TAS | Other Formats
Station Details ID: 097000 Name: CAPE SORELL Lat: -42.20 Lon: 145.17 Height: 19.3 m
Data from the previous 72 hours. | See also: Recent months at Cape Sorell
Date/Time
EDT
Temp
°C
App
Temp
°C
Dew
Point
Rel
Hum
%
Delta-T
°C
Wind Press
QNH
hPa
Press
MSL
hPa
Rain
since 9 am
mm
Dir
 
Spd
km/h
Gust
km/h
Spd
kts
Gust
kts
01/11:30am 13.7 7.5 11.4 86 1.2 SSW 35 56 19 30 1010.8 1010.8 0.2
01/11:29am 14.0 8.3 11.7 86 1.2 SSW 33 56 18 30 1010.9 1010.9 0.2
01/11:00am 14.1 9.4 12.1 88 1.1 SSW 28 33 15 18 1010.7 1010.7 0.2
01/10:34am 15.3 9.6 11.1 76 2.2 SSW 32 52 17 28 1009.9 1009.9 0.0
01/10:30am 15.6 11.5 11.6 77 2.2 SSW 24 35 13 19 1009.9 1009.9 0.0
01/10:00am 14.3 8.2 10.3 77 2.1 SSW 33 43 18 23 1009.4 1009.4 0.0
01/09:30am 14.6 8.9 11.0 79 1.9 SSW 32 39 17 21 1009.0 1009.0 0.0
01/09:00am 14.4 8.5 10.6 78 2.0 SSW 32 35 17 19 1008.5 1008.5 5.4
01/08:30am 14.3 8.3 10.9 80 1.8 SSW 33 39 18 21 1007.8 1007.8 5.4
01/08:00am 14.1 7.4 10.9 81 1.7 SSW 37 44 20 24 1007.3 1007.3 5.4
01/07:30am 14.0 7.3 11.0 82 1.6 SSW 37 44 20 24 1006.7 1006.7 5.4
01/07:00am 14.1 7.5 11.3 83 1.5 SW 37 44 20 24 1006.1 1006.1 5.4
01/06:30am 13.9 6.7 11.8 87 1.1 SSW 41 48 22 26 1005.5 1005.5 5.4
01/06:00am 13.7 7.8 12.3 91 0.8 SW 35 44 19 24 1005.0 1005.0 5.4
01/05:30am 14.2 8.3 12.4 89 1.0 SW 35 44 19 24 1004.6 1004.6 5.4
01/05:00am 14.2 7.2 12.4 89 1.0 SW 41 48 22 26 1004.2 1004.2 5.4
01/04:30am 14.3 8.1 12.5 89 1.0 SW 37 44 20 24 1004.1 1004.1 5.4
01/04:00am 14.0 8.2 12.6 91 0.8 WSW 35 41 19 22 1003.9 1003.9 5.4
01/03:30am 13.9 8.1 12.8 93 0.6 SW 35 41 19 22 1003.8 1003.8 5.4
01/03:00am 14.1 8.4 13.1 94 0.6 WSW 35 43 19 23 1003.9 1003.9 5.4
01/02:30am 13.8 9.0 12.9 94 0.5 WSW 30 35 16 19 1003.8 1003.8 5.4
01/02:00am 14.4 10.9 13.3 93 0.6 WSW 24 41 13 22 1003.7 1003.7 5.2
01/01:30am 13.8 8.4 12.2 90 0.9 WSW 32 48 17 26 1003.6 1003.6 5.2
01/01:23am 14.6 10.2 13.0 90 0.9 WSW 28 48 15 26 1003.5 1003.5 5.0
01/01:00am 14.3 9.8 12.7 90 0.9 W 28 41 15 22 1003.6 1003.6 5.0
01/12:44am 14.3 9.8 12.7 90 0.9 WSW 28 48 15 26 1003.5 1003.5 5.0
01/12:30am 14.1 10.5 12.0 87 1.1 WSW 22 37 12 20 1003.5 1003.5 4.8
01/12:00am 15.1 11.9 13.0 87 1.2 W 22 32 12 17 1003.2 1003.2 4.8
 
Date/Time
EDT
Temp
°C
App
Temp
°C
Dew
Point
Rel
Hum
%
Delta-T
°C
Wind Press
QNH
hPa
Press
MSL
hPa
Rain
since 9 am
mm
Dir
 
Spd
km/h
Gust
km/h
Spd
kts
Gust
kts
28/11:30pm 14.2 10.6 13.1 93 0.6 W 24 33 13 18 1003.2 1003.2 4.8
28/11:00pm 14.3 11.9 13.8 97 0.3 WNW 19 32 10 17 1003.0 1003.0 4.8
28/10:30pm 14.7 11.0 13.9 95 0.5 W 26 35 14 19 1002.8 1002.8 4.8
28/10:00pm 15.5 12.8 14.5 94 0.6 W 22 30 12 16 1002.5 1002.5 4.8
28/09:30pm 15.7 11.9 14.6 93 0.6 W 28 35 15 19 1002.0 1002.0 4.8
28/09:00pm 15.3 9.9 15.1 99 0.1 W 37 48 20 26 1000.8 1000.8 4.8
28/08:30pm 15.4 10.1 15.4 100 0.0 W 37 46 20 25 1000.1 1000.1 4.8
28/08:15pm 15.7 11.3 15.7 100 0.0 WNW 33 48 18 26 999.8 999.8 4.8
28/08:00pm 16.4 13.6 16.4 100 0.0 WNW 26 35 14 19 999.7 999.7 4.8
28/07:30pm 16.6 13.5 16.6 100 0.0 NW 28 35 15 19 999.5 999.5 4.8
28/07:00pm 16.8 13.4 16.8 100 0.0 WNW 30 41 16 22 999.1 999.1 4.6
28/06:30pm 17.3 14.9 17.3 100 0.0 NW 26 43 14 23 998.9 998.9 4.6
28/06:00pm 17.6 14.9 17.6 100 0.0 NNW 28 35 15 19 998.4 998.4 4.6
28/05:30pm 17.6 14.0 17.6 100 0.0 N 33 44 18 24 997.6 997.6 4.6
28/05:00pm 17.9 12.7 17.4 97 0.3 NNW 41 52 22 28 998.6 998.6 4.6
28/04:36pm 18.2 13.2 17.0 93 0.7 NNW 39 57 21 31 998.4 998.4 4.6
28/04:30pm 18.2 14.5 16.9 92 0.8 NNW 32 48 17 26 998.4 998.4 4.6
28/04:00pm 18.6 12.8 17.3 92 0.8 N 44 54 24 29 997.7 997.7 4.6
28/03:30pm 18.0 11.4 17.2 95 0.5 N 48 57 26 31 997.7 997.7 4.6
28/03:00pm 17.6 11.9 17.1 97 0.3 N 43 57 23 31 998.4 998.4 4.6
28/02:30pm 16.7 10.8 16.7 100 0.0 N 43 50 23 27 998.6 998.6 4.6
28/02:00pm 15.9 10.1 15.9 100 0.0 NNE 41 50 22 27 998.9 998.9 4.6
28/01:30pm 15.5 9.1 15.5 100 0.0 NNE 43 52 23 28 999.6 999.6 4.6
28/01:00pm 15.3 9.5 15.0 98 0.2 NNE 39 52 21 28 1000.1 1000.1 4.0
28/12:30pm 14.7 9.4 14.1 96 0.3 NNE 35 43 19 23 1001.0 1001.0 3.8
28/12:00pm 14.3 9.1 13.3 94 0.6 NNE 33 43 18 23 1001.8 1001.8 3.6
28/11:56am 14.5 9.0 13.5 94 0.6 N 35 54 19 29 1001.9 1001.9 3.4
28/11:30am 14.3 9.0 13.0 92 0.7 N 33 41 18 22 1002.2 1002.2 3.4
28/11:00am 14.4 9.8 12.4 88 1.1 N 28 35 15 19 1002.6 1002.6 2.0
28/10:30am 14.5 11.3 12.0 85 1.4 NNW 20 33 11 18 1002.8 1002.8 1.2
28/10:00am 15.1 8.4 11.1 77 2.1 N 37 44 20 24 1002.3 1002.3 0.2
28/09:30am 16.1 9.3 11.9 76 2.3 N 39 46 21 25 1001.8 1001.8 0.0
28/09:00am 15.3 11.7 11.9 80 1.9 N 22 30 12 16 1002.5 1002.5 0.0
28/08:30am 15.4 11.6 12.5 83 1.6 N 24 30 13 16 1002.6 1002.6 0.0
28/08:00am 13.7 12.3 12.1 90 0.9 NNE 11 19 6 10 1002.8 1002.8 0.0
28/07:30am 11.7 10.0 9.9 89 0.9 NE 9 13 5 7 1003.4 1003.4 0.0
28/07:00am 11.7 9.6 9.9 89 0.9 NE 11 15 6 8 1003.5 1003.5 0.0
28/06:30am 11.2 8.5 9.1 87 1.0 NE 13 17 7 9 1003.5 1003.5 0.0
28/06:00am 11.0 8.6 8.8 86 1.1 NE 11 15 6 8 1003.9 1003.9 0.0
28/05:30am 10.9 8.1 8.5 85 1.2 NE 13 17 7 9 1004.3 1004.3 0.0
28/05:00am 10.9 8.1 8.7 86 1.1 NE 13 17 7 9 1004.7 1004.7 0.0
28/04:30am 10.2 7.3 8.3 88 0.9 ENE 13 15 7 8 1005.3 1005.3 0.0
28/04:00am 10.8 8.8 8.6 86 1.1 ENE 9 13 5 7 1006.0 1006.0 0.0
28/03:30am 11.4 9.1 9.0 85 1.2 NE 11 15 6 8 1006.5 1006.5 0.0
28/03:00am 10.8 7.9 8.0 83 1.4 ENE 13 17 7 9 1007.2 1007.2 0.0
28/02:30am 11.1 8.2 8.0 81 1.5 ENE 13 15 7 8 1007.7 1007.7 0.0
28/02:00am 10.4 6.8 6.9 79 1.7 ENE 15 17 8 9 1007.9 1007.9 0.0
28/01:30am 10.5 7.3 6.8 78 1.7 ENE 13 15 7 8 1008.7 1008.7 0.0
28/01:00am 11.0 8.1 6.7 75 2.0 E 11 13 6 7 1008.8 1008.8 0.0
28/12:30am 11.3 8.0 6.6 73 2.2 ESE 13 15 7 8 1009.5 1009.5 0.0
28/12:00am 11.2 7.9 6.5 73 2.2 ESE 13 15 7 8 1009.6 1009.6 0.0
 
Date/Time
EDT
Temp
°C
App
Temp
°C
Dew
Point
Rel
Hum
%
Delta-T
°C
Wind Press
QNH
hPa
Press
MSL
hPa
Rain
since 9 am
mm
Dir
 
Spd
km/h
Gust
km/h
Spd
kts
Gust
kts
27/11:30pm 11.3 8.0 6.4 72 2.3 ESE 13 13 7 7 1010.3 1010.3 0.0
27/11:00pm 11.3 8.0 6.4 72 2.3 ESE 13 15 7 8 1010.5 1010.5 0.0
27/10:30pm 12.0 9.2 6.9 71 2.4 SSE 11 13 6 7 1010.5 1010.5 0.0
27/10:00pm 12.0 9.1 6.3 68 2.7 SSE 11 13 6 7 1010.7 1010.7 0.0
27/09:30pm 13.7 10.2 7.2 65 3.2 SSW 15 20 8 11 1010.9 1010.9 0.0
27/09:00pm 13.8 10.0 7.6 66 3.1 S 17 22 9 12 1010.7 1010.7 0.0
27/08:30pm 13.9 9.8 7.7 66 3.1 SSW 19 22 10 12 1010.6 1010.6 0.0
27/08:00pm 14.1 9.9 7.6 65 3.2 SSW 19 24 10 13 1010.4 1010.4 0.0
27/07:30pm 14.9 11.1 7.5 61 3.7 SSW 17 20 9 11 1010.2 1010.2 0.0
27/07:00pm 15.5 12.0 7.3 58 4.1 SSW 15 19 8 10 1010.0 1010.0 0.0
27/06:30pm 16.3 12.4 7.3 55 4.5 SSW 17 20 9 11 1010.3 1010.3 0.0
27/06:00pm 16.4 13.0 7.6 56 4.4 SSW 15 20 8 11 1010.2 1010.2 0.0
27/05:30pm 15.9 12.0 6.9 55 4.4 S 17 20 9 11 1010.2 1010.2 0.0
27/05:00pm 16.6 12.8 7.5 55 4.6 SSW 17 20 9 11 1010.3 1010.3 0.0
27/04:30pm 17.5 14.2 8.1 54 4.8 SSW 15 19 8 10 1010.5 1010.5 0.0
27/04:00pm 15.7 11.0 7.7 59 4.0 SW 22 26 12 14 1011.0 1011.0 0.0
27/03:30pm 15.1 10.9 7.4 60 3.8 SSW 19 22 10 12 1010.6 1010.6 0.0
27/03:00pm 15.7 12.4 8.0 60 3.9 SSW 15 20 8 11 1010.6 1010.6 0.0
27/02:30pm 15.5 12.0 7.0 57 4.2 SSW 15 22 8 12 1010.8 1010.8 0.0
27/02:00pm 16.1 12.4 8.1 59 4.0 SSW 17 19 9 10 1011.0 1011.0 0.0
27/01:30pm 15.4 11.8 6.9 57 4.2 SSW 15 20 8 11 1010.9 1010.9 0.0
27/01:00pm 16.5 13.1 7.7 56 4.4 SSW 15 19 8 10 1010.9 1010.9 0.0
27/12:30pm 16.1 13.2 8.1 59 4.0 SSW 13 17 7 9 1011.0 1011.0 0.0
27/12:00pm 16.7 13.9 8.7 59 4.1 SSW 13 19 7 10 1011.4 1011.4 0.0
27/11:30am 14.9 11.8 8.8 67 3.1 SSW 15 20 8 11 1011.5 1011.5 0.0
27/11:00am 15.3 12.4 9.7 69 2.9 S 15 19 8 10 1011.1 1011.1 0.0
27/10:30am 15.8 12.6 10.1 69 3.0 S 17 22 9 12 1010.8 1010.8 0.0
27/10:00am 15.0 12.5 9.6 70 2.8 S 13 17 7 9 1011.2 1011.2 0.0
27/09:30am 14.2 12.4 9.6 74 2.4 S 9 15 5 8 1011.4 1011.4 0.0
27/09:00am 14.3 13.8 10.7 79 1.9 E 4 7 2 4 1011.0 1011.0 0.2
27/08:30am 12.6 12.2 9.6 82 1.5 ENE 2 6 1 3 1011.3 1011.3 0.2
27/08:00am 12.6 11.9 10.0 84 1.3 ENE 4 6 2 3 1011.1 1011.1 0.2
27/07:30am 11.5 9.9 8.7 83 1.4 ENE 7 7 4 4 1010.5 1010.5 0.2
27/07:00am 10.4 8.1 7.3 81 1.5 ENE 9 11 5 6 1010.2 1010.2 0.2
27/06:30am 10.5 6.9 6.8 78 1.7 E 15 17 8 9 1009.9 1009.9 0.2
27/06:00am 10.4 7.5 6.5 77 1.8 SE 11 13 6 7 1010.1 1010.1 0.2
27/05:30am 10.8 8.3 6.7 76 1.9 SE 9 11 5 6 1010.3 1010.3 0.2
27/05:00am 12.4 10.0 8.5 77 1.9 S 11 17 6 9 1010.3 1010.3 0.2
27/04:30am 11.5 9.6 7.6 77 1.9 SSE 7 13 4 7 1010.2 1010.2 0.2
27/04:00am 11.8 10.2 7.9 77 1.9 SSW 6 9 3 5 1010.0 1010.0 0.2
27/03:30am 11.3 9.6 7.4 77 1.9 SSE 6 9 3 5 1010.2 1010.2 0.2
27/03:00am 10.5 7.2 6.6 77 1.8 ESE 13 17 7 9 1010.0 1010.0 0.2
27/02:30am 10.9 7.3 6.8 76 1.9 ESE 15 19 8 10 1010.0 1010.0 0.2
27/02:00am 10.8 7.6 6.7 76 1.9 ESE 13 17 7 9 1010.4 1010.4 0.2
27/01:30am 10.7 7.0 6.5 75 2.0 ESE 15 17 8 9 1010.5 1010.5 0.2
27/01:00am 10.9 7.2 6.5 74 2.1 SE 15 20 8 11 1010.9 1010.9 0.2
27/12:30am 11.0 7.7 6.6 74 2.1 SSE 13 19 7 10 1010.7 1010.7 0.2
27/12:00am 11.7 8.1 6.8 72 2.3 SSE 15 22 8 12 1011.1 1011.1 0.2
 
Date/Time
EDT
Temp
°C
App
Temp
°C
Dew
Point
Rel
Hum
%
Delta-T
°C
Wind Press
QNH
hPa
Press
MSL
hPa
Rain
since 9 am
mm
Dir
 
Spd
km/h
Gust
km/h
Spd
kts
Gust
kts
26/11:30pm 12.5 8.2 7.2 70 2.6 SSE 19 28 10 15 1011.3 1011.3 0.2
26/11:00pm 12.4 8.1 7.1 70 2.6 SE 19 26 10 14 1011.2 1011.2 0.2
26/10:30pm 12.3 8.8 7.0 70 2.5 SE 15 24 8 13 1011.5 1011.5 0.2
26/10:00pm 13.4 8.8 8.0 70 2.7 SSE 22 32 12 17 1011.5 1011.5 0.2
26/09:30pm 14.1 7.6 8.9 71 2.6 S 33 39 18 21 1011.2 1011.2 0.2
26/09:00pm 14.1 7.6 8.9 71 2.6 SSW 33 41 18 22 1010.8 1010.8 0.2
26/08:30pm 14.1 8.2 9.1 72 2.5 S 30 37 16 20 1010.4 1010.4 0.2
26/08:00pm 14.3 8.0 9.1 71 2.7 SSW 32 37 17 20 1010.0 1010.0 0.2
26/07:30pm 15.0 8.9 9.8 71 2.7 SSW 32 35 17 19 1009.6 1009.6 0.2
26/07:00pm 15.2 10.0 10.2 72 2.6 S 28 33 15 18 1009.5 1009.5 0.2
26/06:30pm 15.5 10.4 10.7 73 2.5 S 28 35 15 19 1009.3 1009.3 0.2
26/06:00pm 15.8 10.5 11.2 74 2.5 S 30 33 16 18 1009.1 1009.1 0.2
26/05:30pm 15.9 10.7 11.5 75 2.4 S 30 37 16 20 1009.1 1009.1 0.2
26/05:00pm 16.0 10.7 11.4 74 2.5 S 30 33 16 18 1008.9 1008.9 0.2
26/04:30pm 15.9 10.3 11.5 75 2.4 S 32 39 17 21 1009.0 1009.0 0.2
26/04:00pm 16.0 10.7 12.6 80 1.9 S 32 39 17 21 1009.0 1009.0 0.2
26/03:30pm 15.5 10.3 13.3 87 1.2 S 33 39 18 21 1009.3 1009.3 0.2
26/03:00pm 14.9 9.7 14.4 97 0.3 S 35 44 19 24 1009.3 1009.3 0.2
26/02:30pm 14.6 8.7 14.6 100 0.0 S 39 46 21 25 1009.0 1009.0 0.2
26/02:00pm 15.1 11.1 15.1 100 0.0 S 30 35 16 19 1008.8 1008.8 0.2
26/01:30pm 14.2 8.5 14.2 100 0.0 SSW 37 43 20 23 1008.8 1008.8 0.0
26/01:00pm 14.7 9.6 14.7 100 0.0 SSW 35 43 19 23 1008.6 1008.6 0.0
26/12:30pm 15.8 12.2 15.3 97 0.3 SW 28 37 15 20 1008.4 1008.4 0.0
26/12:00pm 16.7 15.1 16.1 96 0.4 WNW 19 24 10 13 1008.6 1008.6 0.0

Other Formats:

Comma delimited format used in spreadsheet applications
http://www.bom.gov.au/fwo/IDT60801/IDT60801.94974.axf

JavaScript Object Notation format (JSON) in row-major order
http://www.bom.gov.au/fwo/IDT60801/IDT60801.94974.json